sensor_id;sensor_type;location;lat;lon;timestamp;P1;durP1;ratioP1;P2;durP2;ratioP2
32505;SDS011;18955;51.224;8.482;2023-01-29T00:01:49;10.80;;;8.73;;
32505;SDS011;18955;51.224;8.482;2023-01-29T00:04:16;12.00;;;10.10;;
32505;SDS011;18955;51.224;8.482;2023-01-29T00:06:42;15.85;;;9.80;;
32505;SDS011;18955;51.224;8.482;2023-01-29T00:09:09;12.77;;;10.10;;
32505;SDS011;18955;51.224;8.482;2023-01-29T00:11:36;12.60;;;10.07;;
32505;SDS011;18955;51.224;8.482;2023-01-29T00:14:03;12.10;;;9.25;;
32505;SDS011;18955;51.224;8.482;2023-01-29T00:16:29;12.65;;;10.05;;
32505;SDS011;18955;51.224;8.482;2023-01-29T00:18:55;11.48;;;9.50;;
32505;SDS011;18955;51.224;8.482;2023-01-29T00:21:22;12.07;;;9.95;;
32505;SDS011;18955;51.224;8.482;2023-01-29T00:23:49;13.45;;;9.88;;
32505;SDS011;18955;51.224;8.482;2023-01-29T00:26:16;13.95;;;10.45;;
32505;SDS011;18955;51.224;8.482;2023-01-29T00:28:46;14.10;;;10.02;;
32505;SDS011;18955;51.224;8.482;2023-01-29T00:31:13;11.75;;;9.32;;
32505;SDS011;18955;51.224;8.482;2023-01-29T00:33:44;11.77;;;9.88;;
32505;SDS011;18955;51.224;8.482;2023-01-29T00:36:12;15.25;;;10.35;;
32505;SDS011;18955;51.224;8.482;2023-01-29T00:38:39;14.13;;;10.40;;
32505;SDS011;18955;51.224;8.482;2023-01-29T00:41:12;13.85;;;10.40;;
32505;SDS011;18955;51.224;8.482;2023-01-29T00:43:59;11.57;;;9.60;;
32505;SDS011;18955;51.224;8.482;2023-01-29T00:46:45;11.25;;;8.82;;
32505;SDS011;18955;51.224;8.482;2023-01-29T00:49:11;9.85;;;7.53;;
32505;SDS011;18955;51.224;8.482;2023-01-29T00:51:37;18.13;;;11.27;;
32505;SDS011;18955;51.224;8.482;2023-01-29T00:54:04;14.73;;;9.57;;
32505;SDS011;18955;51.224;8.482;2023-01-29T00:56:34;12.50;;;9.80;;
32505;SDS011;18955;51.224;8.482;2023-01-29T00:59:02;14.07;;;9.85;;
32505;SDS011;18955;51.224;8.482;2023-01-29T01:01:29;17.25;;;10.18;;
32505;SDS011;18955;51.224;8.482;2023-01-29T01:04:13;12.45;;;10.30;;
32505;SDS011;18955;51.224;8.482;2023-01-29T01:06:40;14.35;;;9.20;;
32505;SDS011;18955;51.224;8.482;2023-01-29T01:09:07;10.98;;;9.02;;
32505;SDS011;18955;51.224;8.482;2023-01-29T01:11:53;10.52;;;8.73;;
32505;SDS011;18955;51.224;8.482;2023-01-29T01:14:19;13.32;;;10.15;;
32505;SDS011;18955;51.224;8.482;2023-01-29T01:16:46;15.02;;;10.68;;
32505;SDS011;18955;51.224;8.482;2023-01-29T01:19:14;17.05;;;11.05;;
32505;SDS011;18955;51.224;8.482;2023-01-29T01:21:41;12.95;;;10.23;;
32505;SDS011;18955;51.224;8.482;2023-01-29T01:24:12;16.80;;;11.10;;
32505;SDS011;18955;51.224;8.482;2023-01-29T01:29:05;12.98;;;8.85;;
32505;SDS011;18955;51.224;8.482;2023-01-29T01:31:31;13.68;;;10.35;;
32505;SDS011;18955;51.224;8.482;2023-01-29T01:33:58;12.63;;;9.48;;
32505;SDS011;18955;51.224;8.482;2023-01-29T01:36:24;14.10;;;11.00;;
32505;SDS011;18955;51.224;8.482;2023-01-29T01:38:51;9.00;;;6.80;;
32505;SDS011;18955;51.224;8.482;2023-01-29T01:41:18;11.13;;;8.65;;
32505;SDS011;18955;51.224;8.482;2023-01-29T01:46:13;13.13;;;10.30;;
32505;SDS011;18955;51.224;8.482;2023-01-29T01:48:39;13.93;;;10.18;;
32505;SDS011;18955;51.224;8.482;2023-01-29T01:51:06;16.13;;;11.43;;
32505;SDS011;18955;51.224;8.482;2023-01-29T01:53:34;14.32;;;11.25;;
32505;SDS011;18955;51.224;8.482;2023-01-29T01:56:05;12.30;;;9.38;;
32505;SDS011;18955;51.224;8.482;2023-01-29T01:58:39;11.50;;;9.20;;
32505;SDS011;18955;51.224;8.482;2023-01-29T02:01:10;14.77;;;10.80;;
32505;SDS011;18955;51.224;8.482;2023-01-29T02:03:39;14.15;;;10.05;;
32505;SDS011;18955;51.224;8.482;2023-01-29T02:06:29;13.95;;;10.40;;
32505;SDS011;18955;51.224;8.482;2023-01-29T02:09:19;15.02;;;10.30;;
32505;SDS011;18955;51.224;8.482;2023-01-29T02:12:04;13.65;;;8.43;;
32505;SDS011;18955;51.224;8.482;2023-01-29T02:14:33;15.82;;;10.55;;
32505;SDS011;18955;51.224;8.482;2023-01-29T02:17:06;10.38;;;7.85;;
32505;SDS011;18955;51.224;8.482;2023-01-29T02:25:51;15.38;;;9.90;;
32505;SDS011;18955;51.224;8.482;2023-01-29T02:31:44;11.95;;;9.63;;
32505;SDS011;18955;51.224;8.482;2023-01-29T02:36:46;12.35;;;9.52;;
32505;SDS011;18955;51.224;8.482;2023-01-29T02:42:21;12.73;;;8.52;;
32505;SDS011;18955;51.224;8.482;2023-01-29T02:56:05;12.50;;;7.97;;
32505;SDS011;18955;51.224;8.482;2023-01-29T02:58:55;12.90;;;8.23;;
32505;SDS011;18955;51.224;8.482;2023-01-29T03:01:32;14.60;;;7.63;;
32505;SDS011;18955;51.224;8.482;2023-01-29T03:04:10;10.80;;;6.97;;
32505;SDS011;18955;51.224;8.482;2023-01-29T03:06:41;11.38;;;7.35;;
32505;SDS011;18955;51.224;8.482;2023-01-29T03:12:21;8.82;;;5.55;;
32505;SDS011;18955;51.224;8.482;2023-01-29T03:15:07;9.45;;;7.30;;
32505;SDS011;18955;51.224;8.482;2023-01-29T03:17:55;10.15;;;6.95;;
32505;SDS011;18955;51.224;8.482;2023-01-29T03:20:31;9.93;;;6.35;;
32505;SDS011;18955;51.224;8.482;2023-01-29T03:23:04;9.70;;;6.40;;
32505;SDS011;18955;51.224;8.482;2023-01-29T03:25:36;9.90;;;6.68;;
32505;SDS011;18955;51.224;8.482;2023-01-29T03:28:27;8.05;;;5.80;;
32505;SDS011;18955;51.224;8.482;2023-01-29T03:31:14;11.15;;;6.38;;
32505;SDS011;18955;51.224;8.482;2023-01-29T03:34:12;9.63;;;5.80;;
32505;SDS011;18955;51.224;8.482;2023-01-29T03:36:58;6.95;;;5.28;;
32505;SDS011;18955;51.224;8.482;2023-01-29T03:39:32;8.20;;;5.90;;
32505;SDS011;18955;51.224;8.482;2023-01-29T03:42:02;8.45;;;5.93;;
32505;SDS011;18955;51.224;8.482;2023-01-29T03:53:28;8.23;;;5.55;;
32505;SDS011;18955;51.224;8.482;2023-01-29T03:56:08;6.68;;;4.80;;
32505;SDS011;18955;51.224;8.482;2023-01-29T04:02:02;7.30;;;5.25;;
32505;SDS011;18955;51.224;8.482;2023-01-29T04:04:32;7.63;;;4.88;;
32505;SDS011;18955;51.224;8.482;2023-01-29T04:07:04;8.57;;;5.32;;
32505;SDS011;18955;51.224;8.482;2023-01-29T04:09:44;7.07;;;5.25;;
32505;SDS011;18955;51.224;8.482;2023-01-29T04:12:14;10.18;;;5.43;;
32505;SDS011;18955;51.224;8.482;2023-01-29T04:14:49;6.88;;;5.03;;
32505;SDS011;18955;51.224;8.482;2023-01-29T04:17:18;7.82;;;5.10;;
32505;SDS011;18955;51.224;8.482;2023-01-29T04:19:57;9.32;;;4.40;;
32505;SDS011;18955;51.224;8.482;2023-01-29T04:22:35;6.85;;;3.88;;
32505;SDS011;18955;51.224;8.482;2023-01-29T04:41:37;6.53;;;4.32;;
32505;SDS011;18955;51.224;8.482;2023-01-29T04:57:53;4.25;;;3.15;;
32505;SDS011;18955;51.224;8.482;2023-01-29T05:00:39;7.32;;;3.88;;
32505;SDS011;18955;51.224;8.482;2023-01-29T05:03:07;5.93;;;3.03;;
32505;SDS011;18955;51.224;8.482;2023-01-29T05:05:37;5.78;;;3.22;;
32505;SDS011;18955;51.224;8.482;2023-01-29T05:08:05;5.65;;;2.90;;
32505;SDS011;18955;51.224;8.482;2023-01-29T05:10:32;4.25;;;3.00;;
32505;SDS011;18955;51.224;8.482;2023-01-29T05:13:00;7.35;;;3.50;;
32505;SDS011;18955;51.224;8.482;2023-01-29T05:15:37;6.03;;;3.08;;
32505;SDS011;18955;51.224;8.482;2023-01-29T05:18:07;7.57;;;3.22;;
32505;SDS011;18955;51.224;8.482;2023-01-29T05:20:35;6.07;;;3.22;;
32505;SDS011;18955;51.224;8.482;2023-01-29T05:23:03;4.28;;;2.92;;
32505;SDS011;18955;51.224;8.482;2023-01-29T05:25:34;4.45;;;2.92;;
32505;SDS011;18955;51.224;8.482;2023-01-29T05:28:00;5.15;;;3.03;;
32505;SDS011;18955;51.224;8.482;2023-01-29T05:30:30;7.03;;;2.38;;
32505;SDS011;18955;51.224;8.482;2023-01-29T05:32:58;5.07;;;2.20;;
32505;SDS011;18955;51.224;8.482;2023-01-29T05:35:24;4.00;;;2.88;;
32505;SDS011;18955;51.224;8.482;2023-01-29T05:37:54;4.72;;;2.72;;
32505;SDS011;18955;51.224;8.482;2023-01-29T05:40:21;3.72;;;2.40;;
32505;SDS011;18955;51.224;8.482;2023-01-29T05:42:48;4.78;;;2.80;;
32505;SDS011;18955;51.224;8.482;2023-01-29T05:45:16;7.35;;;2.53;;
32505;SDS011;18955;51.224;8.482;2023-01-29T05:47:43;5.50;;;2.60;;
32505;SDS011;18955;51.224;8.482;2023-01-29T05:50:11;3.58;;;2.20;;
32505;SDS011;18955;51.224;8.482;2023-01-29T05:52:38;2.75;;;2.15;;
32505;SDS011;18955;51.224;8.482;2023-01-29T05:55:06;4.60;;;2.50;;
32505;SDS011;18955;51.224;8.482;2023-01-29T05:57:34;3.45;;;2.30;;
32505;SDS011;18955;51.224;8.482;2023-01-29T06:00:00;2.33;;;1.83;;
32505;SDS011;18955;51.224;8.482;2023-01-29T06:02:29;4.97;;;2.13;;
32505;SDS011;18955;51.224;8.482;2023-01-29T06:04:56;5.38;;;2.55;;
32505;SDS011;18955;51.224;8.482;2023-01-29T06:07:22;5.35;;;2.55;;
32505;SDS011;18955;51.224;8.482;2023-01-29T06:09:48;4.82;;;2.60;;
32505;SDS011;18955;51.224;8.482;2023-01-29T06:12:14;3.60;;;2.15;;
32505;SDS011;18955;51.224;8.482;2023-01-29T06:14:41;5.40;;;2.30;;
32505;SDS011;18955;51.224;8.482;2023-01-29T06:17:07;3.45;;;2.20;;
32505;SDS011;18955;51.224;8.482;2023-01-29T06:19:33;3.95;;;2.00;;
32505;SDS011;18955;51.224;8.482;2023-01-29T06:21:59;3.65;;;2.22;;
32505;SDS011;18955;51.224;8.482;2023-01-29T06:24:25;4.40;;;2.80;;
32505;SDS011;18955;51.224;8.482;2023-01-29T06:26:52;5.03;;;2.42;;
32505;SDS011;18955;51.224;8.482;2023-01-29T06:29:18;3.95;;;2.17;;
32505;SDS011;18955;51.224;8.482;2023-01-29T06:31:44;2.80;;;2.15;;
32505;SDS011;18955;51.224;8.482;2023-01-29T06:34:10;3.90;;;1.70;;
32505;SDS011;18955;51.224;8.482;2023-01-29T06:36:36;2.63;;;1.98;;
32505;SDS011;18955;51.224;8.482;2023-01-29T06:39:03;3.25;;;2.38;;
32505;SDS011;18955;51.224;8.482;2023-01-29T06:41:29;7.93;;;2.53;;
32505;SDS011;18955;51.224;8.482;2023-01-29T06:43:56;5.03;;;2.35;;
32505;SDS011;18955;51.224;8.482;2023-01-29T06:46:22;4.65;;;2.45;;
32505;SDS011;18955;51.224;8.482;2023-01-29T06:48:48;3.15;;;2.30;;
32505;SDS011;18955;51.224;8.482;2023-01-29T06:51:14;3.20;;;1.85;;
32505;SDS011;18955;51.224;8.482;2023-01-29T06:53:40;6.55;;;2.47;;
32505;SDS011;18955;51.224;8.482;2023-01-29T06:56:07;8.55;;;2.42;;
32505;SDS011;18955;51.224;8.482;2023-01-29T06:58:37;4.38;;;2.20;;
32505;SDS011;18955;51.224;8.482;2023-01-29T07:01:07;3.13;;;2.08;;
32505;SDS011;18955;51.224;8.482;2023-01-29T07:03:34;5.95;;;2.20;;
32505;SDS011;18955;51.224;8.482;2023-01-29T07:08:28;3.78;;;2.00;;
32505;SDS011;18955;51.224;8.482;2023-01-29T07:10:57;2.10;;;1.48;;
32505;SDS011;18955;51.224;8.482;2023-01-29T07:13:27;3.53;;;2.17;;
32505;SDS011;18955;51.224;8.482;2023-01-29T07:15:53;3.50;;;2.08;;
32505;SDS011;18955;51.224;8.482;2023-01-29T07:18:23;5.13;;;2.40;;
32505;SDS011;18955;51.224;8.482;2023-01-29T07:20:50;2.75;;;1.65;;
32505;SDS011;18955;51.224;8.482;2023-01-29T07:23:16;3.58;;;1.83;;
32505;SDS011;18955;51.224;8.482;2023-01-29T07:25:42;5.05;;;2.58;;
32505;SDS011;18955;51.224;8.482;2023-01-29T07:28:08;4.07;;;2.60;;
32505;SDS011;18955;51.224;8.482;2023-01-29T07:30:35;4.13;;;2.20;;
32505;SDS011;18955;51.224;8.482;2023-01-29T07:33:02;2.50;;;1.73;;
32505;SDS011;18955;51.224;8.482;2023-01-29T07:35:29;3.67;;;2.17;;
32505;SDS011;18955;51.224;8.482;2023-01-29T07:37:56;5.85;;;2.55;;
32505;SDS011;18955;51.224;8.482;2023-01-29T07:40:23;2.97;;;2.22;;
32505;SDS011;18955;51.224;8.482;2023-01-29T07:42:49;3.33;;;2.30;;
32505;SDS011;18955;51.224;8.482;2023-01-29T07:45:15;4.28;;;2.60;;
32505;SDS011;18955;51.224;8.482;2023-01-29T07:47:42;4.93;;;2.75;;
32505;SDS011;18955;51.224;8.482;2023-01-29T07:50:08;2.28;;;1.60;;
32505;SDS011;18955;51.224;8.482;2023-01-29T07:52:34;4.40;;;2.40;;
32505;SDS011;18955;51.224;8.482;2023-01-29T07:55:01;3.35;;;2.17;;
32505;SDS011;18955;51.224;8.482;2023-01-29T07:57:27;2.53;;;1.58;;
32505;SDS011;18955;51.224;8.482;2023-01-29T07:59:55;4.45;;;2.58;;
32505;SDS011;18955;51.224;8.482;2023-01-29T08:02:21;3.80;;;2.60;;
32505;SDS011;18955;51.224;8.482;2023-01-29T08:04:47;3.25;;;2.55;;
32505;SDS011;18955;51.224;8.482;2023-01-29T08:07:13;4.65;;;2.55;;
32505;SDS011;18955;51.224;8.482;2023-01-29T08:09:40;4.20;;;2.67;;
32505;SDS011;18955;51.224;8.482;2023-01-29T08:12:06;6.25;;;2.63;;
32505;SDS011;18955;51.224;8.482;2023-01-29T08:14:32;2.25;;;1.65;;
32505;SDS011;18955;51.224;8.482;2023-01-29T08:16:58;4.55;;;2.30;;
32505;SDS011;18955;51.224;8.482;2023-01-29T08:19:25;3.40;;;2.50;;
32505;SDS011;18955;51.224;8.482;2023-01-29T08:21:51;3.80;;;2.60;;
32505;SDS011;18955;51.224;8.482;2023-01-29T08:24:17;4.72;;;2.53;;
32505;SDS011;18955;51.224;8.482;2023-01-29T08:26:43;3.45;;;2.13;;
32505;SDS011;18955;51.224;8.482;2023-01-29T08:29:10;3.28;;;2.05;;
32505;SDS011;18955;51.224;8.482;2023-01-29T08:31:37;6.47;;;2.80;;
32505;SDS011;18955;51.224;8.482;2023-01-29T08:34:03;4.93;;;2.67;;
32505;SDS011;18955;51.224;8.482;2023-01-29T08:36:29;4.35;;;2.67;;
32505;SDS011;18955;51.224;8.482;2023-01-29T08:38:55;5.72;;;2.75;;
32505;SDS011;18955;51.224;8.482;2023-01-29T08:41:22;3.63;;;2.78;;
32505;SDS011;18955;51.224;8.482;2023-01-29T08:43:48;4.68;;;2.75;;
32505;SDS011;18955;51.224;8.482;2023-01-29T08:46:14;5.43;;;3.83;;
32505;SDS011;18955;51.224;8.482;2023-01-29T08:48:41;5.45;;;2.85;;
32505;SDS011;18955;51.224;8.482;2023-01-29T08:51:07;5.40;;;3.05;;
32505;SDS011;18955;51.224;8.482;2023-01-29T08:53:33;5.90;;;3.85;;
32505;SDS011;18955;51.224;8.482;2023-01-29T08:56:00;9.25;;;3.85;;
32505;SDS011;18955;51.224;8.482;2023-01-29T08:58:26;5.22;;;3.75;;
32505;SDS011;18955;51.224;8.482;2023-01-29T09:00:52;7.13;;;3.35;;
32505;SDS011;18955;51.224;8.482;2023-01-29T09:03:18;11.13;;;4.60;;
32505;SDS011;18955;51.224;8.482;2023-01-29T09:05:45;8.90;;;5.55;;
32505;SDS011;18955;51.224;8.482;2023-01-29T09:08:11;14.43;;;8.65;;
32505;SDS011;18955;51.224;8.482;2023-01-29T09:10:37;4.63;;;2.65;;
32505;SDS011;18955;51.224;8.482;2023-01-29T09:13:04;8.27;;;4.57;;
32505;SDS011;18955;51.224;8.482;2023-01-29T09:15:30;6.60;;;3.67;;
32505;SDS011;18955;51.224;8.482;2023-01-29T09:17:56;8.00;;;4.20;;
32505;SDS011;18955;51.224;8.482;2023-01-29T09:20:22;4.88;;;3.47;;
32505;SDS011;18955;51.224;8.482;2023-01-29T09:22:48;4.53;;;2.90;;
32505;SDS011;18955;51.224;8.482;2023-01-29T09:25:18;7.25;;;4.60;;
32505;SDS011;18955;51.224;8.482;2023-01-29T09:30:11;6.28;;;4.00;;
32505;SDS011;18955;51.224;8.482;2023-01-29T09:32:37;6.22;;;3.72;;
32505;SDS011;18955;51.224;8.482;2023-01-29T09:35:04;5.82;;;3.67;;
32505;SDS011;18955;51.224;8.482;2023-01-29T09:37:30;5.95;;;4.28;;
32505;SDS011;18955;51.224;8.482;2023-01-29T09:39:57;8.02;;;4.68;;
32505;SDS011;18955;51.224;8.482;2023-01-29T09:42:32;9.45;;;4.63;;
32505;SDS011;18955;51.224;8.482;2023-01-29T09:47:36;11.98;;;5.20;;
32505;SDS011;18955;51.224;8.482;2023-01-29T09:55:50;12.90;;;7.10;;
32505;SDS011;18955;51.224;8.482;2023-01-29T10:01:04;15.93;;;8.70;;
32505;SDS011;18955;51.224;8.482;2023-01-29T10:04:05;18.33;;;9.63;;
32505;SDS011;18955;51.224;8.482;2023-01-29T10:25:27;17.17;;;10.45;;
32505;SDS011;18955;51.224;8.482;2023-01-29T10:27:56;17.15;;;10.05;;
32505;SDS011;18955;51.224;8.482;2023-01-29T10:30:27;17.15;;;11.00;;
32505;SDS011;18955;51.224;8.482;2023-01-29T10:33:03;17.33;;;9.10;;
32505;SDS011;18955;51.224;8.482;2023-01-29T10:35:32;17.20;;;8.82;;
32505;SDS011;18955;51.224;8.482;2023-01-29T10:38:22;18.25;;;11.23;;
32505;SDS011;18955;51.224;8.482;2023-01-29T10:40:52;19.63;;;11.48;;
32505;SDS011;18955;51.224;8.482;2023-01-29T10:43:31;21.87;;;13.13;;
32505;SDS011;18955;51.224;8.482;2023-01-29T10:46:19;21.48;;;12.77;;
32505;SDS011;18955;51.224;8.482;2023-01-29T11:02:18;15.18;;;8.85;;
32505;SDS011;18955;51.224;8.482;2023-01-29T11:04:47;22.27;;;12.43;;
32505;SDS011;18955;51.224;8.482;2023-01-29T11:07:14;19.83;;;12.65;;
32505;SDS011;18955;51.224;8.482;2023-01-29T11:09:45;16.77;;;9.45;;
32505;SDS011;18955;51.224;8.482;2023-01-29T11:12:17;22.35;;;12.32;;
32505;SDS011;18955;51.224;8.482;2023-01-29T11:17:24;22.98;;;13.38;;
32505;SDS011;18955;51.224;8.482;2023-01-29T11:19:51;20.60;;;11.55;;
32505;SDS011;18955;51.224;8.482;2023-01-29T11:22:22;27.13;;;15.30;;
32505;SDS011;18955;51.224;8.482;2023-01-29T11:27:45;27.38;;;15.77;;
32505;SDS011;18955;51.224;8.482;2023-01-29T11:30:24;26.42;;;16.02;;
32505;SDS011;18955;51.224;8.482;2023-01-29T11:33:19;23.35;;;12.30;;
32505;SDS011;18955;51.224;8.482;2023-01-29T11:35:48;23.33;;;13.27;;
32505;SDS011;18955;51.224;8.482;2023-01-29T11:40:46;25.05;;;14.63;;
32505;SDS011;18955;51.224;8.482;2023-01-29T11:43:34;22.15;;;11.98;;
32505;SDS011;18955;51.224;8.482;2023-01-29T11:46:03;26.38;;;16.00;;
32505;SDS011;18955;51.224;8.482;2023-01-29T11:48:41;21.70;;;13.30;;
32505;SDS011;18955;51.224;8.482;2023-01-29T11:51:11;24.75;;;13.20;;
32505;SDS011;18955;51.224;8.482;2023-01-29T11:53:51;22.73;;;13.30;;
32505;SDS011;18955;51.224;8.482;2023-01-29T11:56:31;23.25;;;14.05;;
32505;SDS011;18955;51.224;8.482;2023-01-29T11:59:13;23.77;;;12.73;;
32505;SDS011;18955;51.224;8.482;2023-01-29T12:01:50;21.38;;;11.57;;
32505;SDS011;18955;51.224;8.482;2023-01-29T12:06:44;24.83;;;13.48;;
32505;SDS011;18955;51.224;8.482;2023-01-29T12:09:17;17.38;;;10.95;;
32505;SDS011;18955;51.224;8.482;2023-01-29T12:11:46;23.35;;;13.20;;
32505;SDS011;18955;51.224;8.482;2023-01-29T12:17:09;22.15;;;12.73;;
32505;SDS011;18955;51.224;8.482;2023-01-29T12:24:51;20.63;;;11.63;;
32505;SDS011;18955;51.224;8.482;2023-01-29T12:27:38;25.90;;;14.45;;
32505;SDS011;18955;51.224;8.482;2023-01-29T12:30:16;26.90;;;15.02;;
32505;SDS011;18955;51.224;8.482;2023-01-29T12:35:49;23.50;;;14.48;;
32505;SDS011;18955;51.224;8.482;2023-01-29T12:38:20;25.92;;;14.27;;
32505;SDS011;18955;51.224;8.482;2023-01-29T12:43:20;18.88;;;11.10;;
32505;SDS011;18955;51.224;8.482;2023-01-29T12:45:52;19.98;;;11.80;;
32505;SDS011;18955;51.224;8.482;2023-01-29T12:48:23;19.52;;;10.88;;
32505;SDS011;18955;51.224;8.482;2023-01-29T12:51:00;21.10;;;12.88;;
32505;SDS011;18955;51.224;8.482;2023-01-29T12:53:36;25.55;;;11.63;;
32505;SDS011;18955;51.224;8.482;2023-01-29T12:56:10;18.30;;;11.63;;
32505;SDS011;18955;51.224;8.482;2023-01-29T12:58:46;20.70;;;12.77;;
32505;SDS011;18955;51.224;8.482;2023-01-29T13:01:29;35.22;;;17.67;;
32505;SDS011;18955;51.224;8.482;2023-01-29T13:04:28;29.85;;;16.42;;
32505;SDS011;18955;51.224;8.482;2023-01-29T13:06:58;29.95;;;14.45;;
32505;SDS011;18955;51.224;8.482;2023-01-29T13:09:40;18.42;;;10.18;;
32505;SDS011;18955;51.224;8.482;2023-01-29T13:12:16;21.00;;;12.52;;
32505;SDS011;18955;51.224;8.482;2023-01-29T13:19:53;19.10;;;11.68;;
32505;SDS011;18955;51.224;8.482;2023-01-29T13:22:31;20.55;;;12.93;;
32505;SDS011;18955;51.224;8.482;2023-01-29T13:25:00;18.90;;;12.30;;
32505;SDS011;18955;51.224;8.482;2023-01-29T13:27:28;21.20;;;13.10;;
32505;SDS011;18955;51.224;8.482;2023-01-29T13:29:57;21.75;;;12.05;;
32505;SDS011;18955;51.224;8.482;2023-01-29T13:32:26;20.95;;;12.18;;
32505;SDS011;18955;51.224;8.482;2023-01-29T13:34:54;15.60;;;10.05;;
32505;SDS011;18955;51.224;8.482;2023-01-29T13:39:57;17.40;;;10.75;;
32505;SDS011;18955;51.224;8.482;2023-01-29T13:45:00;14.43;;;9.85;;
32505;SDS011;18955;51.224;8.482;2023-01-29T13:47:28;16.35;;;10.60;;
32505;SDS011;18955;51.224;8.482;2023-01-29T13:49:58;15.20;;;8.73;;
32505;SDS011;18955;51.224;8.482;2023-01-29T14:07:59;9.60;;;6.18;;
32505;SDS011;18955;51.224;8.482;2023-01-29T14:10:46;17.25;;;10.80;;
32505;SDS011;18955;51.224;8.482;2023-01-29T14:13:53;12.82;;;8.23;;
32505;SDS011;18955;51.224;8.482;2023-01-29T14:18:55;17.05;;;10.52;;
32505;SDS011;18955;51.224;8.482;2023-01-29T14:21:24;17.88;;;9.65;;
32505;SDS011;18955;51.224;8.482;2023-01-29T14:24:10;13.85;;;9.15;;
32505;SDS011;18955;51.224;8.482;2023-01-29T14:26:47;17.02;;;9.27;;
32505;SDS011;18955;51.224;8.482;2023-01-29T14:29:19;14.43;;;8.75;;
32505;SDS011;18955;51.224;8.482;2023-01-29T14:34:32;11.80;;;6.97;;
32505;SDS011;18955;51.224;8.482;2023-01-29T14:37:01;14.63;;;8.35;;
32505;SDS011;18955;51.224;8.482;2023-01-29T14:39:36;14.70;;;7.15;;
32505;SDS011;18955;51.224;8.482;2023-01-29T14:42:17;11.45;;;7.10;;
32505;SDS011;18955;51.224;8.482;2023-01-29T14:53:09;15.60;;;7.63;;
32505;SDS011;18955;51.224;8.482;2023-01-29T14:55:50;15.05;;;8.43;;
32505;SDS011;18955;51.224;8.482;2023-01-29T14:58:42;12.48;;;7.85;;
32505;SDS011;18955;51.224;8.482;2023-01-29T15:01:14;11.65;;;7.60;;
32505;SDS011;18955;51.224;8.482;2023-01-29T15:03:46;10.68;;;7.40;;
32505;SDS011;18955;51.224;8.482;2023-01-29T15:06:17;13.55;;;8.48;;
32505;SDS011;18955;51.224;8.482;2023-01-29T15:08:52;16.23;;;7.45;;
32505;SDS011;18955;51.224;8.482;2023-01-29T15:11:26;13.43;;;8.35;;
32505;SDS011;18955;51.224;8.482;2023-01-29T15:14:04;14.00;;;8.75;;
32505;SDS011;18955;51.224;8.482;2023-01-29T15:16:43;13.15;;;7.57;;
32505;SDS011;18955;51.224;8.482;2023-01-29T15:22:05;18.73;;;9.95;;
32505;SDS011;18955;51.224;8.482;2023-01-29T15:24:33;15.88;;;10.13;;
32505;SDS011;18955;51.224;8.482;2023-01-29T15:27:01;16.98;;;10.13;;
32505;SDS011;18955;51.224;8.482;2023-01-29T15:31:54;16.35;;;9.93;;
32505;SDS011;18955;51.224;8.482;2023-01-29T15:34:21;21.80;;;11.20;;
32505;SDS011;18955;51.224;8.482;2023-01-29T15:36:48;16.60;;;10.65;;
32505;SDS011;18955;51.224;8.482;2023-01-29T15:39:22;16.08;;;9.98;;
32505;SDS011;18955;51.224;8.482;2023-01-29T15:41:50;17.88;;;11.10;;
32505;SDS011;18955;51.224;8.482;2023-01-29T15:44:35;15.32;;;9.10;;
32505;SDS011;18955;51.224;8.482;2023-01-29T15:47:08;15.30;;;9.35;;
32505;SDS011;18955;51.224;8.482;2023-01-29T15:49:35;16.98;;;9.45;;
32505;SDS011;18955;51.224;8.482;2023-01-29T15:52:07;16.67;;;9.63;;
32505;SDS011;18955;51.224;8.482;2023-01-29T15:54:43;13.93;;;9.20;;
32505;SDS011;18955;51.224;8.482;2023-01-29T15:59:47;14.10;;;8.60;;
32505;SDS011;18955;51.224;8.482;2023-01-29T16:02:17;15.25;;;9.88;;
32505;SDS011;18955;51.224;8.482;2023-01-29T16:04:51;10.15;;;6.72;;
32505;SDS011;18955;51.224;8.482;2023-01-29T16:07:17;14.55;;;9.10;;
32505;SDS011;18955;51.224;8.482;2023-01-29T16:09:45;14.23;;;7.75;;
32505;SDS011;18955;51.224;8.482;2023-01-29T16:12:11;14.52;;;8.73;;
32505;SDS011;18955;51.224;8.482;2023-01-29T16:14:38;15.45;;;10.02;;
32505;SDS011;18955;51.224;8.482;2023-01-29T16:17:48;16.25;;;9.88;;
32505;SDS011;18955;51.224;8.482;2023-01-29T16:20:00;16.80;;;10.40;;
32505;SDS011;18955;51.224;8.482;2023-01-29T16:22:33;19.60;;;10.15;;
32505;SDS011;18955;51.224;8.482;2023-01-29T16:25:05;18.42;;;9.75;;
32505;SDS011;18955;51.224;8.482;2023-01-29T16:27:37;15.32;;;9.15;;
32505;SDS011;18955;51.224;8.482;2023-01-29T16:30:03;14.00;;;8.10;;
32505;SDS011;18955;51.224;8.482;2023-01-29T16:32:32;17.45;;;10.13;;
32505;SDS011;18955;51.224;8.482;2023-01-29T16:39:53;18.67;;;11.10;;
32505;SDS011;18955;51.224;8.482;2023-01-29T16:47:22;15.73;;;9.45;;
32505;SDS011;18955;51.224;8.482;2023-01-29T16:52:56;14.73;;;8.27;;
32505;SDS011;18955;51.224;8.482;2023-01-29T16:55:26;10.15;;;5.75;;
32505;SDS011;18955;51.224;8.482;2023-01-29T16:58:02;15.38;;;9.07;;
32505;SDS011;18955;51.224;8.482;2023-01-29T17:00:36;12.82;;;8.18;;
32505;SDS011;18955;51.224;8.482;2023-01-29T17:03:09;15.18;;;9.32;;
32505;SDS011;18955;51.224;8.482;2023-01-29T17:05:39;16.60;;;9.20;;
32505;SDS011;18955;51.224;8.482;2023-01-29T17:08:05;17.20;;;9.55;;
32505;SDS011;18955;51.224;8.482;2023-01-29T17:10:32;15.57;;;9.60;;
32505;SDS011;18955;51.224;8.482;2023-01-29T17:13:02;13.10;;;9.27;;
32505;SDS011;18955;51.224;8.482;2023-01-29T17:15:33;14.98;;;9.00;;
32505;SDS011;18955;51.224;8.482;2023-01-29T17:18:15;19.58;;;10.80;;
32505;SDS011;18955;51.224;8.482;2023-01-29T17:20:46;17.08;;;8.75;;
32505;SDS011;18955;51.224;8.482;2023-01-29T17:23:13;15.57;;;9.63;;
32505;SDS011;18955;51.224;8.482;2023-01-29T17:25:40;13.05;;;7.53;;
32505;SDS011;18955;51.224;8.482;2023-01-29T17:28:08;13.30;;;8.75;;
32505;SDS011;18955;51.224;8.482;2023-01-29T17:30:37;12.48;;;8.68;;
32505;SDS011;18955;51.224;8.482;2023-01-29T17:35:50;17.05;;;9.52;;
32505;SDS011;18955;51.224;8.482;2023-01-29T17:38:17;15.93;;;8.82;;
32505;SDS011;18955;51.224;8.482;2023-01-29T17:40:46;16.25;;;10.27;;
32505;SDS011;18955;51.224;8.482;2023-01-29T17:43:23;16.20;;;8.88;;
32505;SDS011;18955;51.224;8.482;2023-01-29T17:45:49;17.45;;;8.90;;
32505;SDS011;18955;51.224;8.482;2023-01-29T17:50:50;15.38;;;9.40;;
32505;SDS011;18955;51.224;8.482;2023-01-29T17:53:18;10.98;;;7.15;;
32505;SDS011;18955;51.224;8.482;2023-01-29T17:55:46;14.15;;;9.05;;
32505;SDS011;18955;51.224;8.482;2023-01-29T18:00:51;13.13;;;8.85;;
32505;SDS011;18955;51.224;8.482;2023-01-29T18:03:18;12.45;;;8.13;;
32505;SDS011;18955;51.224;8.482;2023-01-29T18:08:15;16.50;;;8.45;;
32505;SDS011;18955;51.224;8.482;2023-01-29T18:10:44;12.93;;;7.65;;
32505;SDS011;18955;51.224;8.482;2023-01-29T18:13:11;11.20;;;7.40;;
32505;SDS011;18955;51.224;8.482;2023-01-29T18:15:38;12.07;;;7.65;;
32505;SDS011;18955;51.224;8.482;2023-01-29T18:18:04;14.82;;;8.32;;
32505;SDS011;18955;51.224;8.482;2023-01-29T18:20:31;12.57;;;8.05;;
32505;SDS011;18955;51.224;8.482;2023-01-29T18:23:03;12.93;;;8.50;;
32505;SDS011;18955;51.224;8.482;2023-01-29T18:25:31;9.90;;;5.90;;
32505;SDS011;18955;51.224;8.482;2023-01-29T18:27:58;13.05;;;8.10;;
32505;SDS011;18955;51.224;8.482;2023-01-29T18:30:25;10.20;;;5.90;;
32505;SDS011;18955;51.224;8.482;2023-01-29T18:32:52;13.52;;;8.65;;
32505;SDS011;18955;51.224;8.482;2023-01-29T18:35:19;12.30;;;7.18;;
32505;SDS011;18955;51.224;8.482;2023-01-29T18:37:45;13.55;;;7.13;;